createdAt,value
2022-11-24T00:01:53.115Z,6.50
2022-11-24T00:04:22.462Z,6.53
2022-11-24T00:06:53.447Z,6.56
2022-11-24T00:09:22.646Z,6.63
2022-11-24T00:11:51.980Z,6.69
2022-11-24T00:14:21.270Z,6.80
2022-11-24T00:16:50.816Z,6.80
2022-11-24T00:19:20.139Z,6.85
2022-11-24T00:21:49.358Z,6.79
2022-11-24T00:24:18.685Z,6.80
2022-11-24T00:26:48.051Z,6.80
2022-11-24T00:29:17.480Z,6.79
2022-11-24T00:31:46.823Z,6.81
2022-11-24T00:34:16.533Z,6.76
2022-11-24T00:36:45.740Z,6.80
2022-11-24T00:39:16.358Z,6.77
2022-11-24T00:41:45.871Z,6.81
2022-11-24T00:44:15.278Z,6.81
2022-11-24T00:46:44.733Z,6.78
2022-11-24T00:49:14.188Z,6.74
2022-11-24T00:51:43.437Z,6.80
2022-11-24T00:54:13.028Z,6.76
2022-11-24T00:56:42.247Z,6.86
2022-11-24T00:59:11.837Z,6.90
2022-11-24T01:01:42.475Z,6.94
2022-11-24T01:04:11.805Z,6.95
2022-11-24T01:06:41.054Z,7.03
2022-11-24T01:09:12.082Z,7.09
2022-11-24T01:11:59.326Z,7.13
2022-11-24T01:14:29.145Z,7.08
2022-11-24T01:16:58.684Z,7.16
2022-11-24T01:19:28.140Z,7.10
2022-11-24T01:21:57.364Z,7.13
2022-11-24T01:24:26.702Z,7.22
2022-11-24T01:26:55.942Z,7.18
2022-11-24T01:29:26.018Z,7.23
2022-11-24T01:31:55.269Z,7.15
2022-11-24T01:34:24.896Z,7.08
2022-11-24T01:36:54.300Z,7.11
2022-11-24T01:39:23.536Z,7.17
2022-11-24T01:41:52.872Z,7.20
2022-11-24T01:44:24.663Z,7.23
2022-11-24T01:46:58.889Z,7.27
2022-11-24T01:49:46.122Z,7.25
2022-11-24T01:52:18.492Z,7.26
2022-11-24T01:54:56.709Z,7.21
2022-11-24T01:57:28.787Z,7.18
2022-11-24T02:00:01.142Z,7.21
2022-11-24T02:02:32.399Z,7.21
2022-11-24T02:05:15.473Z,7.22
2022-11-24T02:07:45.149Z,7.33
2022-11-24T02:10:16.137Z,7.32
2022-11-24T02:12:47.685Z,7.36
2022-11-24T02:15:18.416Z,7.38
2022-11-24T02:17:48.048Z,7.36
2022-11-24T02:20:17.701Z,7.40
2022-11-24T02:22:59.300Z,7.45
2022-11-24T02:25:49.881Z,7.41
2022-11-24T02:28:22.231Z,7.40
2022-11-24T02:30:51.939Z,7.31
2022-11-24T02:33:22.338Z,7.38
2022-11-24T02:35:52.172Z,7.29
2022-11-24T02:38:30.874Z,7.28
2022-11-24T02:41:02.490Z,7.22
2022-11-24T02:43:34.208Z,7.29
2022-11-24T02:46:03.532Z,7.21
2022-11-24T02:48:32.868Z,7.16
2022-11-24T02:51:02.055Z,7.18
2022-11-24T02:53:31.409Z,7.22
2022-11-24T02:56:00.735Z,7.24
2022-11-24T02:58:30.024Z,7.27
2022-11-24T03:00:59.821Z,7.36
2022-11-24T03:03:29.305Z,7.28
2022-11-24T03:05:58.608Z,7.23
2022-11-24T03:08:27.922Z,7.19
2022-11-24T03:10:57.319Z,7.10
2022-11-24T03:13:26.596Z,7.10
2022-11-24T03:15:56.015Z,7.09
2022-11-24T03:18:25.505Z,7.09
2022-11-24T03:20:54.920Z,7.05
2022-11-24T03:23:24.142Z,7.01
2022-11-24T03:25:53.420Z,6.99
2022-11-24T03:28:22.921Z,6.96
2022-11-24T03:30:52.214Z,6.93
2022-11-24T03:33:21.619Z,6.89
2022-11-24T03:35:51.001Z,6.89
2022-11-24T03:38:20.413Z,6.83
2022-11-24T03:40:49.682Z,6.88
2022-11-24T03:43:19.231Z,6.85
2022-11-24T03:45:49.987Z,6.84
2022-11-24T03:48:21.610Z,6.82
2022-11-24T03:50:58.610Z,6.79
2022-11-24T03:53:29.263Z,6.76
2022-11-24T03:55:59.246Z,6.78
2022-11-24T03:58:28.992Z,6.78
2022-11-24T04:00:58.660Z,6.80
2022-11-24T04:03:27.871Z,6.81
2022-11-24T04:05:57.108Z,6.84
2022-11-24T04:08:26.460Z,6.81
2022-11-24T04:10:56.050Z,6.78
2022-11-24T04:13:26.500Z,6.77
2022-11-24T04:15:56.401Z,6.75
2022-11-24T04:18:25.612Z,6.76
2022-11-24T04:20:55.009Z,6.74
2022-11-24T04:23:24.537Z,6.75
2022-11-24T04:25:53.764Z,6.68
2022-11-24T04:28:23.096Z,6.63
2022-11-24T04:30:52.334Z,6.63
2022-11-24T04:33:21.696Z,6.60
2022-11-24T04:35:53.966Z,6.56
2022-11-24T04:39:23.941Z,6.55
2022-11-24T04:40:54.101Z,6.46
2022-11-24T04:43:23.430Z,6.44
2022-11-24T04:45:52.632Z,6.41
2022-11-24T04:48:22.033Z,6.38
2022-11-24T04:50:51.551Z,6.34
2022-11-24T04:53:20.770Z,6.32
2022-11-24T04:55:50.405Z,6.29
2022-11-24T04:58:19.601Z,6.26
2022-11-24T05:00:49.063Z,6.26
2022-11-24T05:03:18.257Z,6.25
2022-11-24T05:05:47.628Z,6.20
2022-11-24T05:08:16.924Z,6.17
2022-11-24T05:10:46.357Z,6.18
2022-11-24T05:13:15.565Z,6.17
2022-11-24T05:15:44.846Z,6.11
2022-11-24T05:18:16.305Z,6.08
2022-11-24T05:20:45.847Z,6.05
2022-11-24T05:23:15.133Z,6.06
2022-11-24T05:25:47.631Z,6.03
2022-11-24T05:28:15.279Z,6.09
2022-11-24T05:30:45.050Z,6.05
2022-11-24T05:33:20.021Z,6.05
2022-11-24T05:35:50.186Z,6.02
2022-11-24T05:38:19.867Z,6.04
2022-11-24T05:40:49.238Z,6.05
2022-11-24T05:43:18.925Z,6.01
2022-11-24T05:45:48.145Z,6.04
2022-11-24T05:48:17.449Z,6.03
2022-11-24T05:50:46.673Z,6.03
2022-11-24T05:53:15.924Z,6.04
2022-11-24T05:55:45.372Z,6.06
2022-11-24T05:58:14.891Z,6.09
2022-11-24T06:00:44.106Z,6.05
2022-11-24T06:03:13.972Z,6.05
2022-11-24T06:05:46.875Z,6.01
2022-11-24T06:08:16.388Z,5.93
2022-11-24T06:10:45.745Z,5.87
2022-11-24T06:13:15.222Z,5.92
2022-11-24T06:15:44.969Z,5.86
2022-11-24T06:18:14.402Z,5.83
2022-11-24T06:20:53.079Z,5.82
2022-11-24T06:23:14.728Z,5.76
2022-11-24T06:25:47.370Z,5.74
2022-11-24T06:28:15.055Z,5.70
2022-11-24T06:30:44.295Z,5.65
2022-11-24T06:33:13.547Z,5.69
2022-11-24T06:35:42.778Z,5.72
2022-11-24T06:38:12.518Z,5.76
2022-11-24T06:40:41.709Z,5.80
2022-11-24T06:43:11.194Z,5.75
2022-11-24T06:45:40.422Z,5.70
2022-11-24T06:48:09.639Z,5.78
2022-11-24T06:50:39.315Z,5.76
2022-11-24T06:53:08.651Z,5.82
2022-11-24T06:55:37.894Z,5.89
2022-11-24T06:58:07.189Z,5.92
2022-11-24T07:00:37.101Z,5.96
2022-11-24T07:03:06.635Z,5.99
2022-11-24T07:05:35.869Z,6.00
2022-11-24T07:08:05.929Z,6.08
2022-11-24T07:10:35.519Z,6.03
2022-11-24T07:13:05.243Z,6.15
2022-11-24T07:15:34.468Z,6.17
2022-11-24T07:18:03.816Z,6.20
2022-11-24T07:20:33.283Z,6.21
2022-11-24T07:23:02.665Z,6.15
2022-11-24T07:25:31.939Z,6.07
2022-11-24T07:28:01.608Z,6.03
2022-11-24T07:30:30.981Z,6.02
2022-11-24T07:33:01.737Z,5.97
2022-11-24T07:35:31.621Z,5.87
2022-11-24T07:38:00.999Z,5.82
2022-11-24T07:40:30.908Z,5.82
2022-11-24T07:43:01.765Z,5.78
2022-11-24T07:45:32.494Z,5.81
2022-11-24T07:48:01.929Z,5.83
2022-11-24T07:50:31.539Z,5.81
2022-11-24T07:53:05.172Z,5.83
2022-11-24T07:55:34.482Z,5.84
2022-11-24T07:58:03.950Z,5.82
2022-11-24T08:00:33.177Z,5.83
2022-11-24T08:03:02.610Z,5.87
2022-11-24T08:05:31.903Z,5.87
2022-11-24T08:08:01.638Z,5.95
2022-11-24T08:10:30.867Z,6.01
2022-11-24T08:13:03.448Z,6.04
2022-11-24T08:15:32.177Z,6.15
2022-11-24T08:18:03.486Z,6.14
2022-11-24T08:20:32.926Z,6.16
2022-11-24T08:23:02.881Z,6.20
2022-11-24T08:25:32.985Z,6.24
2022-11-24T08:28:03.660Z,6.23
2022-11-24T08:30:33.198Z,6.31
2022-11-24T08:33:02.771Z,6.33
2022-11-24T08:35:31.966Z,6.43
2022-11-24T08:38:04.818Z,6.46
2022-11-24T08:40:33.034Z,6.48
2022-11-24T08:43:02.638Z,6.53
2022-11-24T08:45:35.476Z,6.61
2022-11-24T08:48:03.120Z,6.65
2022-11-24T08:50:33.876Z,6.67
2022-11-24T08:53:03.182Z,6.80
2022-11-24T08:55:32.611Z,6.87
2022-11-24T08:58:01.927Z,6.83
2022-11-24T09:00:31.268Z,6.96
2022-11-24T09:03:00.786Z,7.04
2022-11-24T09:05:51.162Z,7.13
2022-11-24T09:08:01.059Z,7.25
2022-11-24T09:10:30.390Z,7.35
2022-11-24T09:12:59.849Z,7.50
2022-11-24T09:15:29.369Z,7.51
2022-11-24T09:17:59.139Z,7.59
2022-11-24T09:20:28.511Z,7.70
2022-11-24T09:22:58.095Z,7.89
2022-11-24T09:25:27.432Z,7.98
2022-11-24T09:27:57.317Z,8.05
2022-11-24T09:30:26.738Z,7.96
2022-11-24T09:32:59.277Z,8.13
2022-11-24T09:35:28.689Z,8.17
2022-11-24T09:37:57.888Z,8.46
2022-11-24T09:40:27.325Z,8.56
2022-11-24T09:43:02.502Z,8.67
2022-11-24T09:46:03.972Z,8.91
2022-11-24T09:48:14.903Z,9.11
2022-11-24T09:50:45.798Z,9.62
2022-11-24T09:53:35.602Z,10.19
2022-11-24T09:56:20.981Z,10.94
2022-11-24T09:58:54.892Z,11.62
2022-11-24T10:01:32.807Z,12.15
2022-11-24T10:04:06.482Z,12.10
2022-11-24T10:06:42.232Z,12.09
2022-11-24T10:09:32.942Z,11.85
2022-11-24T10:12:09.111Z,11.91
2022-11-24T10:14:59.314Z,12.41
2022-11-24T10:17:37.900Z,13.00
2022-11-24T10:20:22.407Z,13.81
2022-11-24T10:23:00.826Z,13.11
2022-11-24T10:25:56.789Z,13.09
2022-11-24T10:28:31.914Z,14.01
2022-11-24T10:31:21.239Z,13.56
2022-11-24T10:33:50.949Z,13.57
2022-11-24T10:36:23.376Z,12.92
2022-11-24T10:39:08.162Z,12.63
2022-11-24T10:42:01.818Z,13.27
2022-11-24T10:44:31.415Z,14.02
2022-11-24T10:47:00.748Z,14.29
2022-11-24T10:49:33.731Z,13.77
2022-11-24T10:52:14.145Z,14.09
2022-11-24T10:55:01.077Z,13.24
2022-11-24T10:57:41.191Z,13.89
2022-11-24T11:00:23.258Z,14.60
2022-11-24T11:03:10.757Z,13.94
2022-11-24T11:05:42.965Z,13.77
2022-11-24T11:08:20.689Z,13.56
2022-11-24T11:10:53.500Z,13.74
2022-11-24T11:13:28.544Z,13.71
2022-11-24T11:15:59.251Z,13.81
2022-11-24T11:18:33.651Z,13.60
2022-11-24T11:21:03.668Z,14.34
2022-11-24T11:23:35.213Z,13.82
2022-11-24T11:26:31.056Z,13.58
2022-11-24T11:31:41.820Z,13.58
2022-11-24T11:34:25.268Z,13.81
2022-11-24T11:36:53.246Z,13.69
2022-11-24T11:39:36.661Z,13.58
2022-11-24T11:42:45.355Z,13.34
2022-11-24T11:45:07.616Z,12.32
2022-11-24T11:47:43.188Z,11.62
2022-11-24T11:50:18.119Z,11.55
2022-11-24T11:52:53.401Z,11.26
2022-11-24T11:55:26.016Z,10.99
2022-11-24T11:58:02.008Z,10.90
2022-11-24T12:00:32.808Z,10.70
2022-11-24T12:03:21.938Z,10.77
2022-11-24T12:06:20.611Z,10.74
2022-11-24T12:09:23.724Z,10.80
2022-11-24T12:11:47.567Z,10.81
2022-11-24T12:14:39.185Z,10.86
2022-11-24T12:17:29.033Z,10.96
2022-11-24T12:20:04.479Z,10.98
2022-11-24T12:22:39.897Z,10.90
2022-11-24T12:25:21.599Z,10.94
2022-11-24T12:28:27.809Z,10.94
2022-11-24T12:31:03.995Z,10.84
2022-11-24T12:34:01.506Z,10.84
2022-11-24T12:36:40.158Z,10.79
2022-11-24T12:39:18.272Z,10.75
2022-11-24T12:41:56.625Z,10.68
2022-11-24T12:44:48.529Z,10.87
2022-11-24T12:47:30.117Z,10.78
2022-11-24T12:50:14.611Z,10.80
2022-11-24T12:52:47.000Z,10.69
2022-11-24T12:55:18.677Z,10.65
2022-11-24T12:58:23.095Z,10.75
2022-11-24T13:01:16.134Z,10.82
2022-11-24T13:04:10.992Z,10.82
2022-11-24T13:06:49.723Z,10.80
2022-11-24T13:09:19.640Z,10.68
2022-11-24T13:11:51.185Z,10.71
2022-11-24T13:14:22.982Z,10.87
2022-11-24T13:19:36.857Z,10.84
2022-11-24T13:22:09.449Z,10.78
2022-11-24T13:24:38.925Z,10.71
2022-11-24T13:27:22.406Z,10.71
2022-11-24T13:29:52.453Z,10.69
2022-11-24T13:32:25.221Z,10.60
2022-11-24T13:34:58.079Z,10.44
2022-11-24T13:37:35.489Z,10.40
2022-11-24T13:40:17.827Z,10.39
2022-11-24T13:43:03.319Z,10.37
2022-11-24T13:45:48.799Z,10.35
2022-11-24T13:48:24.072Z,10.34
2022-11-24T13:50:57.049Z,10.34
2022-11-24T13:53:37.239Z,10.27
2022-11-24T13:56:18.877Z,10.26
2022-11-24T13:58:54.001Z,10.15
2022-11-24T14:01:28.630Z,10.11
2022-11-24T14:04:36.268Z,10.09
2022-11-24T14:07:02.471Z,9.99
2022-11-24T14:09:46.992Z,9.97
2022-11-24T14:12:19.093Z,9.81
2022-11-24T14:14:55.016Z,9.74
2022-11-24T14:17:27.513Z,9.67
2022-11-24T14:19:58.243Z,9.66
2022-11-24T14:22:36.144Z,9.69
2022-11-24T14:25:06.054Z,9.71
2022-11-24T14:27:38.267Z,9.72
2022-11-24T14:30:12.693Z,9.72
2022-11-24T14:32:43.639Z,9.62
2022-11-24T14:35:30.274Z,9.47
2022-11-24T14:38:01.996Z,9.43
2022-11-24T14:40:40.549Z,9.36
2022-11-24T14:43:25.358Z,9.36
2022-11-24T14:46:03.668Z,9.37
2022-11-24T14:48:37.647Z,9.27
2022-11-24T14:51:10.022Z,9.30
2022-11-24T14:53:43.852Z,9.27
2022-11-24T14:56:37.199Z,9.19
2022-11-24T14:59:24.410Z,9.22
2022-11-24T15:01:53.943Z,9.13
2022-11-24T15:07:16.159Z,9.10
2022-11-24T15:09:48.713Z,9.00
2022-11-24T15:12:29.290Z,8.97
2022-11-24T15:15:04.572Z,8.90
2022-11-24T15:17:33.961Z,8.91
2022-11-24T15:20:06.613Z,8.92
2022-11-24T15:22:36.276Z,8.87
2022-11-24T15:25:23.526Z,8.75
2022-11-24T15:36:25.189Z,8.56
2022-11-24T15:38:54.678Z,8.50
2022-11-24T15:41:27.101Z,8.48
2022-11-24T15:43:58.099Z,8.51
2022-11-24T15:46:28.606Z,8.50
2022-11-24T15:48:58.092Z,8.49
2022-11-24T15:51:27.697Z,8.54
2022-11-24T15:54:00.987Z,8.52
2022-11-24T15:56:34.282Z,8.49
2022-11-24T15:59:04.318Z,8.44
2022-11-24T16:01:35.083Z,8.40
2022-11-24T16:04:04.666Z,8.35
2022-11-24T16:06:34.031Z,8.31
2022-11-24T16:09:03.571Z,8.27
2022-11-24T16:11:33.024Z,8.27
2022-11-24T16:14:02.521Z,8.27
2022-11-24T16:16:31.948Z,8.21
2022-11-24T16:19:01.717Z,8.23
2022-11-24T16:21:31.256Z,8.26
2022-11-24T16:24:00.640Z,8.23
2022-11-24T16:26:29.960Z,8.21
2022-11-24T16:28:59.393Z,8.15
2022-11-24T16:31:28.948Z,8.18
2022-11-24T16:33:58.194Z,8.20
2022-11-24T16:36:28.388Z,8.17
2022-11-24T16:38:57.892Z,8.14
2022-11-24T16:41:27.134Z,8.08
2022-11-24T16:43:56.920Z,8.09
2022-11-24T16:46:26.471Z,8.12
2022-11-24T16:49:00.292Z,8.17
2022-11-24T16:51:34.661Z,8.16
2022-11-24T16:54:02.880Z,8.12
2022-11-24T16:56:32.399Z,8.14
2022-11-24T16:59:02.004Z,8.07
2022-11-24T17:01:33.006Z,8.10
2022-11-24T17:04:03.749Z,8.09
2022-11-24T17:06:34.559Z,8.06
2022-11-24T17:09:03.762Z,7.98
2022-11-24T17:11:32.984Z,7.99
2022-11-24T17:14:02.914Z,8.03
2022-11-24T17:16:32.197Z,8.09
2022-11-24T17:19:01.531Z,8.11
2022-11-24T17:21:32.179Z,8.04
2022-11-24T17:24:05.377Z,8.09
2022-11-24T17:26:35.307Z,8.11
2022-11-24T17:29:05.118Z,8.08
2022-11-24T17:31:39.559Z,8.05
2022-11-24T17:34:10.855Z,8.08
2022-11-24T17:36:41.618Z,8.03
2022-11-24T17:39:11.347Z,8.00
2022-11-24T17:41:41.263Z,7.91
2022-11-24T17:44:12.226Z,7.89
2022-11-24T17:46:41.469Z,7.89
2022-11-24T17:49:12.483Z,7.86
2022-11-24T17:51:41.971Z,7.75
2022-11-24T17:54:44.900Z,7.75
2022-11-24T17:56:42.588Z,7.81
2022-11-24T17:59:12.013Z,7.77
2022-11-24T18:01:41.408Z,7.75
2022-11-24T18:04:11.285Z,7.75
2022-11-24T18:06:40.465Z,7.66
2022-11-24T18:09:10.061Z,7.58
2022-11-24T18:11:39.431Z,7.68
2022-11-24T18:14:09.846Z,7.65
2022-11-24T18:16:39.076Z,7.65
2022-11-24T18:19:11.375Z,7.61
2022-11-24T18:21:42.297Z,7.61
2022-11-24T18:24:12.746Z,7.53
2022-11-24T18:26:43.788Z,7.59
2022-11-24T18:29:13.404Z,7.55
2022-11-24T18:31:42.685Z,7.53
2022-11-24T18:34:12.044Z,7.65
2022-11-24T18:36:41.386Z,7.56
2022-11-24T18:39:11.375Z,7.58
2022-11-24T18:41:40.933Z,7.51
2022-11-24T18:44:10.462Z,7.57
2022-11-24T18:46:39.730Z,7.59
2022-11-24T18:49:09.392Z,7.53
2022-11-24T18:51:38.595Z,7.42
2022-11-24T18:54:07.973Z,7.47
2022-11-24T18:56:37.245Z,7.46
2022-11-24T18:59:06.571Z,7.43
2022-11-24T19:01:36.059Z,7.43
2022-11-24T19:04:05.921Z,7.48
2022-11-24T19:06:37.475Z,7.49
2022-11-24T19:09:09.689Z,7.40
2022-11-24T19:11:41.441Z,7.37
2022-11-24T19:14:13.611Z,7.36
2022-11-24T19:16:43.332Z,7.46
2022-11-24T19:19:13.640Z,7.39
2022-11-24T19:21:43.672Z,7.32
2022-11-24T19:24:13.659Z,7.39
2022-11-24T19:26:43.102Z,7.35
2022-11-24T19:29:12.724Z,7.27
2022-11-24T19:31:43.951Z,7.32
2022-11-24T19:34:13.449Z,7.27
2022-11-24T19:36:43.420Z,7.30
2022-11-24T19:39:17.214Z,7.27
2022-11-24T19:41:46.758Z,7.17
2022-11-24T19:44:16.202Z,7.15
2022-11-24T19:46:45.505Z,7.23
2022-11-24T19:49:14.954Z,7.19
2022-11-24T19:51:44.440Z,7.24
2022-11-24T19:54:14.118Z,7.30
2022-11-24T19:56:43.485Z,7.28
2022-11-24T19:59:15.301Z,7.33
2022-11-24T20:05:04.832Z,7.36
2022-11-24T20:07:34.793Z,7.30
2022-11-24T20:10:07.759Z,7.28
2022-11-24T20:12:35.316Z,7.28
2022-11-24T20:15:04.947Z,7.26
2022-11-24T20:17:34.200Z,7.27
2022-11-24T20:20:03.958Z,7.28
2022-11-24T20:22:33.299Z,7.36
2022-11-24T20:25:02.658Z,7.35
2022-11-24T20:27:31.874Z,7.38
2022-11-24T20:30:01.287Z,7.41
2022-11-24T20:32:30.777Z,7.45
2022-11-24T20:35:01.763Z,7.42
2022-11-24T20:37:31.191Z,7.30
2022-11-24T20:40:02.457Z,7.26
2022-11-24T20:42:32.607Z,7.25
2022-11-24T20:45:01.935Z,7.17
2022-11-24T20:47:31.468Z,7.24
2022-11-24T20:50:00.820Z,7.22
2022-11-24T20:52:30.261Z,7.24
2022-11-24T20:55:01.374Z,7.26
2022-11-24T20:57:30.664Z,7.34
2022-11-24T20:59:59.952Z,7.30
2022-11-24T21:02:29.251Z,7.38
2022-11-24T21:04:58.885Z,7.45
2022-11-24T21:07:28.281Z,7.47
2022-11-24T21:09:57.618Z,7.47
2022-11-24T21:12:26.842Z,7.46
2022-11-24T21:14:56.341Z,7.49
2022-11-24T21:17:25.532Z,7.52
2022-11-24T21:20:00.763Z,7.54
2022-11-24T21:22:25.821Z,7.55
2022-11-24T21:24:55.200Z,7.61
2022-11-24T21:27:24.403Z,7.60
2022-11-24T21:29:53.641Z,7.54
2022-11-24T21:32:23.105Z,7.63
2022-11-24T21:34:52.426Z,7.67
2022-11-24T21:37:21.764Z,7.62
2022-11-24T21:39:51.022Z,7.58
2022-11-24T21:42:20.452Z,7.67
2022-11-24T21:44:49.704Z,7.63
2022-11-24T21:47:18.967Z,7.64
2022-11-24T21:49:48.445Z,7.66
2022-11-24T21:52:17.686Z,7.70
2022-11-24T21:54:46.951Z,7.78
2022-11-24T21:57:16.392Z,7.81
2022-11-24T21:59:45.616Z,7.77
2022-11-24T22:02:15.195Z,7.76
2022-11-24T22:04:44.437Z,7.75
2022-11-24T22:07:13.894Z,7.68
2022-11-24T22:09:43.377Z,7.78
2022-11-24T22:12:12.741Z,7.77
2022-11-24T22:14:43.256Z,7.81
2022-11-24T22:17:14.806Z,7.84
2022-11-24T22:19:44.228Z,7.89
2022-11-24T22:22:13.475Z,7.85
2022-11-24T22:24:42.851Z,7.84
2022-11-24T22:27:12.097Z,7.78
2022-11-24T22:29:41.487Z,7.74
2022-11-24T22:32:10.713Z,7.83
2022-11-24T22:34:40.013Z,7.86
2022-11-24T22:37:09.274Z,7.81
2022-11-24T22:39:38.599Z,7.73
2022-11-24T22:42:07.834Z,7.65
2022-11-24T22:44:37.661Z,7.55
2022-11-24T22:47:07.086Z,7.48
2022-11-24T22:49:36.431Z,7.43
2022-11-24T22:52:05.647Z,7.37
2022-11-24T22:54:35.345Z,7.31
2022-11-24T22:57:04.963Z,7.31
2022-11-24T22:59:34.191Z,7.30
2022-11-24T23:02:05.115Z,7.27
2022-11-24T23:04:34.634Z,7.27
2022-11-24T23:07:04.150Z,7.25
2022-11-24T23:09:33.850Z,7.23
2022-11-24T23:12:03.094Z,7.23
2022-11-24T23:14:32.348Z,7.26
2022-11-24T23:17:01.597Z,7.25
2022-11-24T23:19:30.944Z,7.21
2022-11-24T23:22:00.201Z,7.22
2022-11-24T23:24:30.245Z,7.18
2022-11-24T23:26:59.560Z,7.22
2022-11-24T23:29:28.863Z,7.22
2022-11-24T23:31:58.340Z,7.24
2022-11-24T23:34:28.090Z,7.28
2022-11-24T23:36:57.309Z,7.25
2022-11-24T23:39:26.941Z,7.28
2022-11-24T23:41:56.166Z,7.25
2022-11-24T23:44:25.528Z,7.28
2022-11-24T23:46:54.961Z,7.23
2022-11-24T23:49:24.468Z,7.24
2022-11-24T23:51:53.873Z,7.25
2022-11-24T23:54:23.353Z,7.23
2022-11-24T23:56:52.574Z,7.27
2022-11-24T23:59:22.771Z,7.30
